sensor_id;sensor_type;location;lat;lon;timestamp;P1;durP1;ratioP1;P2;durP2;ratioP2
13269;SDS011;6703;51.994;7.570;2023-07-20T00:01:30;3.63;;;2.40;;
13269;SDS011;6703;51.994;7.570;2023-07-20T00:04:00;7.15;;;2.88;;
13269;SDS011;6703;51.994;7.570;2023-07-20T00:06:27;5.97;;;2.78;;
13269;SDS011;6703;51.994;7.570;2023-07-20T00:08:55;7.40;;;3.30;;
13269;SDS011;6703;51.994;7.570;2023-07-20T00:11:25;7.03;;;3.00;;
13269;SDS011;6703;51.994;7.570;2023-07-20T00:13:54;5.75;;;2.90;;
13269;SDS011;6703;51.994;7.570;2023-07-20T00:16:22;5.30;;;3.30;;
13269;SDS011;6703;51.994;7.570;2023-07-20T00:18:50;6.47;;;3.40;;
13269;SDS011;6703;51.994;7.570;2023-07-20T00:21:19;9.15;;;3.47;;
13269;SDS011;6703;51.994;7.570;2023-07-20T00:23:47;8.60;;;3.60;;
13269;SDS011;6703;51.994;7.570;2023-07-20T00:26:15;6.97;;;3.50;;
13269;SDS011;6703;51.994;7.570;2023-07-20T00:28:43;7.50;;;3.78;;
13269;SDS011;6703;51.994;7.570;2023-07-20T00:31:11;8.20;;;4.20;;
13269;SDS011;6703;51.994;7.570;2023-07-20T00:33:39;11.73;;;4.80;;
13269;SDS011;6703;51.994;7.570;2023-07-20T00:36:07;8.80;;;4.80;;
13269;SDS011;6703;51.994;7.570;2023-07-20T00:38:36;15.32;;;5.68;;
13269;SDS011;6703;51.994;7.570;2023-07-20T00:41:04;10.52;;;5.50;;
13269;SDS011;6703;51.994;7.570;2023-07-20T00:43:31;12.07;;;5.50;;
13269;SDS011;6703;51.994;7.570;2023-07-20T00:46:00;13.57;;;6.07;;
13269;SDS011;6703;51.994;7.570;2023-07-20T00:48:29;13.83;;;5.80;;
13269;SDS011;6703;51.994;7.570;2023-07-20T00:50:57;13.38;;;6.70;;
13269;SDS011;6703;51.994;7.570;2023-07-20T00:53:25;16.80;;;6.90;;
13269;SDS011;6703;51.994;7.570;2023-07-20T00:55:55;14.90;;;6.30;;
13269;SDS011;6703;51.994;7.570;2023-07-20T00:58:23;9.27;;;5.97;;
13269;SDS011;6703;51.994;7.570;2023-07-20T01:00:51;18.53;;;6.07;;
13269;SDS011;6703;51.994;7.570;2023-07-20T01:03:19;11.30;;;6.20;;
13269;SDS011;6703;51.994;7.570;2023-07-20T01:05:48;11.90;;;6.78;;
13269;SDS011;6703;51.994;7.570;2023-07-20T01:08:21;15.52;;;7.32;;
13269;SDS011;6703;51.994;7.570;2023-07-20T01:10:57;15.23;;;7.90;;
13269;SDS011;6703;51.994;7.570;2023-07-20T01:13:30;14.20;;;7.88;;
13269;SDS011;6703;51.994;7.570;2023-07-20T01:16:00;19.30;;;8.15;;
13269;SDS011;6703;51.994;7.570;2023-07-20T01:18:29;14.27;;;8.67;;
13269;SDS011;6703;51.994;7.570;2023-07-20T01:20:58;16.00;;;8.60;;
13269;SDS011;6703;51.994;7.570;2023-07-20T01:23:40;17.35;;;8.30;;
13269;SDS011;6703;51.994;7.570;2023-07-20T01:26:36;15.90;;;8.48;;
13269;SDS011;6703;51.994;7.570;2023-07-20T01:29:16;14.80;;;7.47;;
13269;SDS011;6703;51.994;7.570;2023-07-20T01:31:51;15.30;;;7.50;;
13269;SDS011;6703;51.994;7.570;2023-07-20T01:34:19;14.57;;;7.17;;
13269;SDS011;6703;51.994;7.570;2023-07-20T01:36:50;15.43;;;7.68;;
13269;SDS011;6703;51.994;7.570;2023-07-20T01:39:19;13.68;;;7.18;;
13269;SDS011;6703;51.994;7.570;2023-07-20T01:41:48;14.57;;;7.28;;
13269;SDS011;6703;51.994;7.570;2023-07-20T01:44:16;13.85;;;7.53;;
13269;SDS011;6703;51.994;7.570;2023-07-20T01:46:43;14.15;;;6.97;;
13269;SDS011;6703;51.994;7.570;2023-07-20T01:49:13;12.75;;;7.25;;
13269;SDS011;6703;51.994;7.570;2023-07-20T01:51:40;17.37;;;7.30;;
13269;SDS011;6703;51.994;7.570;2023-07-20T01:54:08;18.52;;;7.70;;
13269;SDS011;6703;51.994;7.570;2023-07-20T01:56:36;13.68;;;7.05;;
13269;SDS011;6703;51.994;7.570;2023-07-20T01:59:26;16.45;;;7.40;;
13269;SDS011;6703;51.994;7.570;2023-07-20T02:01:54;11.40;;;6.80;;
13269;SDS011;6703;51.994;7.570;2023-07-20T02:04:23;10.85;;;7.38;;
13269;SDS011;6703;51.994;7.570;2023-07-20T02:06:50;13.48;;;6.90;;
13269;SDS011;6703;51.994;7.570;2023-07-20T02:09:18;14.63;;;7.53;;
13269;SDS011;6703;51.994;7.570;2023-07-20T02:11:46;13.57;;;7.07;;
13269;SDS011;6703;51.994;7.570;2023-07-20T02:14:20;13.43;;;7.30;;
13269;SDS011;6703;51.994;7.570;2023-07-20T02:16:48;13.20;;;7.78;;
13269;SDS011;6703;51.994;7.570;2023-07-20T02:19:19;12.40;;;7.95;;
13269;SDS011;6703;51.994;7.570;2023-07-20T02:21:49;16.70;;;8.50;;
13269;SDS011;6703;51.994;7.570;2023-07-20T02:24:17;14.55;;;8.30;;
13269;SDS011;6703;51.994;7.570;2023-07-20T02:26:44;15.17;;;7.80;;
13269;SDS011;6703;51.994;7.570;2023-07-20T02:29:12;15.75;;;7.80;;
13269;SDS011;6703;51.994;7.570;2023-07-20T02:31:40;16.30;;;8.20;;
13269;SDS011;6703;51.994;7.570;2023-07-20T02:34:09;14.50;;;7.50;;
13269;SDS011;6703;51.994;7.570;2023-07-20T02:36:37;14.55;;;8.15;;
13269;SDS011;6703;51.994;7.570;2023-07-20T02:39:06;15.05;;;8.18;;
13269;SDS011;6703;51.994;7.570;2023-07-20T02:41:34;15.27;;;8.60;;
13269;SDS011;6703;51.994;7.570;2023-07-20T02:44:01;16.40;;;8.35;;
13269;SDS011;6703;51.994;7.570;2023-07-20T02:46:30;12.82;;;7.47;;
13269;SDS011;6703;51.994;7.570;2023-07-20T02:48:57;17.38;;;8.82;;
13269;SDS011;6703;51.994;7.570;2023-07-20T02:51:25;16.77;;;8.80;;
13269;SDS011;6703;51.994;7.570;2023-07-20T02:53:53;16.10;;;8.70;;
13269;SDS011;6703;51.994;7.570;2023-07-20T02:56:22;18.05;;;9.15;;
13269;SDS011;6703;51.994;7.570;2023-07-20T02:58:50;17.50;;;8.10;;
13269;SDS011;6703;51.994;7.570;2023-07-20T03:01:18;14.63;;;7.97;;
13269;SDS011;6703;51.994;7.570;2023-07-20T03:03:46;15.43;;;8.05;;
13269;SDS011;6703;51.994;7.570;2023-07-20T03:06:16;16.73;;;8.07;;
13269;SDS011;6703;51.994;7.570;2023-07-20T03:08:44;19.90;;;8.50;;
13269;SDS011;6703;51.994;7.570;2023-07-20T03:11:13;20.02;;;8.98;;
13269;SDS011;6703;51.994;7.570;2023-07-20T03:13:43;15.70;;;9.13;;
13269;SDS011;6703;51.994;7.570;2023-07-20T03:16:12;13.70;;;8.30;;
13269;SDS011;6703;51.994;7.570;2023-07-20T03:18:41;15.80;;;9.07;;
13269;SDS011;6703;51.994;7.570;2023-07-20T03:21:09;17.05;;;9.25;;
13269;SDS011;6703;51.994;7.570;2023-07-20T03:23:38;21.20;;;9.20;;
13269;SDS011;6703;51.994;7.570;2023-07-20T03:26:07;17.45;;;9.23;;
13269;SDS011;6703;51.994;7.570;2023-07-20T03:28:35;15.38;;;8.80;;
13269;SDS011;6703;51.994;7.570;2023-07-20T03:31:05;17.75;;;8.90;;
13269;SDS011;6703;51.994;7.570;2023-07-20T03:33:33;16.00;;;8.60;;
13269;SDS011;6703;51.994;7.570;2023-07-20T03:36:01;18.10;;;8.95;;
13269;SDS011;6703;51.994;7.570;2023-07-20T03:38:29;19.45;;;9.93;;
13269;SDS011;6703;51.994;7.570;2023-07-20T03:40:57;17.33;;;9.50;;
13269;SDS011;6703;51.994;7.570;2023-07-20T03:43:26;24.33;;;13.02;;
13269;SDS011;6703;51.994;7.570;2023-07-20T03:45:55;26.95;;;12.85;;
13269;SDS011;6703;51.994;7.570;2023-07-20T03:48:24;23.50;;;12.65;;
13269;SDS011;6703;51.994;7.570;2023-07-20T03:50:53;22.08;;;12.10;;
13269;SDS011;6703;51.994;7.570;2023-07-20T03:53:20;23.38;;;12.57;;
13269;SDS011;6703;51.994;7.570;2023-07-20T03:55:49;23.08;;;12.70;;
13269;SDS011;6703;51.994;7.570;2023-07-20T03:58:18;21.50;;;12.25;;
13269;SDS011;6703;51.994;7.570;2023-07-20T04:00:48;25.52;;;12.90;;
13269;SDS011;6703;51.994;7.570;2023-07-20T04:03:16;24.33;;;13.05;;
13269;SDS011;6703;51.994;7.570;2023-07-20T04:05:47;24.77;;;13.55;;
13269;SDS011;6703;51.994;7.570;2023-07-20T04:08:14;23.00;;;12.75;;
13269;SDS011;6703;51.994;7.570;2023-07-20T04:10:43;22.83;;;12.57;;
13269;SDS011;6703;51.994;7.570;2023-07-20T04:13:11;21.65;;;12.65;;
13269;SDS011;6703;51.994;7.570;2023-07-20T04:15:39;24.30;;;12.82;;
13269;SDS011;6703;51.994;7.570;2023-07-20T04:18:06;22.15;;;12.35;;
13269;SDS011;6703;51.994;7.570;2023-07-20T04:20:34;20.05;;;11.68;;
13269;SDS011;6703;51.994;7.570;2023-07-20T04:23:04;23.10;;;12.25;;
13269;SDS011;6703;51.994;7.570;2023-07-20T04:25:32;23.15;;;11.93;;
13269;SDS011;6703;51.994;7.570;2023-07-20T04:28:06;20.93;;;11.13;;
13269;SDS011;6703;51.994;7.570;2023-07-20T04:30:36;18.90;;;10.77;;
13269;SDS011;6703;51.994;7.570;2023-07-20T04:33:05;21.77;;;10.68;;
13269;SDS011;6703;51.994;7.570;2023-07-20T04:35:45;20.38;;;11.63;;
13269;SDS011;6703;51.994;7.570;2023-07-20T04:38:18;18.98;;;11.80;;
13269;SDS011;6703;51.994;7.570;2023-07-20T04:40:47;20.40;;;11.63;;
13269;SDS011;6703;51.994;7.570;2023-07-20T04:43:16;18.60;;;10.97;;
13269;SDS011;6703;51.994;7.570;2023-07-20T04:45:44;20.80;;;11.55;;
13269;SDS011;6703;51.994;7.570;2023-07-20T04:48:13;16.13;;;10.25;;
13269;SDS011;6703;51.994;7.570;2023-07-20T04:50:42;16.70;;;10.27;;
13269;SDS011;6703;51.994;7.570;2023-07-20T04:53:11;18.17;;;10.97;;
13269;SDS011;6703;51.994;7.570;2023-07-20T04:55:40;19.38;;;10.40;;
13269;SDS011;6703;51.994;7.570;2023-07-20T04:58:16;18.05;;;11.35;;
13269;SDS011;6703;51.994;7.570;2023-07-20T05:00:44;14.88;;;10.13;;
13269;SDS011;6703;51.994;7.570;2023-07-20T05:03:12;18.10;;;10.30;;
13269;SDS011;6703;51.994;7.570;2023-07-20T05:05:40;14.23;;;8.98;;
13269;SDS011;6703;51.994;7.570;2023-07-20T05:08:08;15.50;;;8.80;;
13269;SDS011;6703;51.994;7.570;2023-07-20T05:10:36;13.32;;;9.38;;
13269;SDS011;6703;51.994;7.570;2023-07-20T05:13:05;12.60;;;8.70;;
13269;SDS011;6703;51.994;7.570;2023-07-20T05:15:33;13.80;;;8.63;;
13269;SDS011;6703;51.994;7.570;2023-07-20T05:18:02;13.10;;;8.27;;
13269;SDS011;6703;51.994;7.570;2023-07-20T05:20:29;15.23;;;9.32;;
13269;SDS011;6703;51.994;7.570;2023-07-20T05:22:59;15.05;;;9.57;;
13269;SDS011;6703;51.994;7.570;2023-07-20T05:25:27;14.82;;;9.35;;
13269;SDS011;6703;51.994;7.570;2023-07-20T05:27:56;14.25;;;7.85;;
13269;SDS011;6703;51.994;7.570;2023-07-20T05:33:26;12.38;;;8.13;;
13269;SDS011;6703;51.994;7.570;2023-07-20T05:35:54;12.80;;;7.18;;
13269;SDS011;6703;51.994;7.570;2023-07-20T05:38:21;13.07;;;7.95;;
13269;SDS011;6703;51.994;7.570;2023-07-20T05:40:49;11.17;;;7.00;;
13269;SDS011;6703;51.994;7.570;2023-07-20T05:43:17;10.55;;;6.85;;
13269;SDS011;6703;51.994;7.570;2023-07-20T05:45:45;9.67;;;5.80;;
13269;SDS011;6703;51.994;7.570;2023-07-20T05:48:15;7.10;;;4.82;;
13269;SDS011;6703;51.994;7.570;2023-07-20T05:50:43;8.68;;;4.80;;
13269;SDS011;6703;51.994;7.570;2023-07-20T05:53:11;8.20;;;5.00;;
13269;SDS011;6703;51.994;7.570;2023-07-20T05:55:39;8.63;;;4.65;;
13269;SDS011;6703;51.994;7.570;2023-07-20T05:58:07;6.57;;;4.47;;
13269;SDS011;6703;51.994;7.570;2023-07-20T06:00:35;6.47;;;4.50;;
13269;SDS011;6703;51.994;7.570;2023-07-20T06:03:02;5.97;;;4.38;;
13269;SDS011;6703;51.994;7.570;2023-07-20T06:05:32;9.40;;;4.63;;
13269;SDS011;6703;51.994;7.570;2023-07-20T06:08:00;6.07;;;4.53;;
13269;SDS011;6703;51.994;7.570;2023-07-20T06:10:27;6.43;;;4.10;;
13269;SDS011;6703;51.994;7.570;2023-07-20T06:12:56;5.68;;;4.22;;
13269;SDS011;6703;51.994;7.570;2023-07-20T06:15:24;6.10;;;4.40;;
13269;SDS011;6703;51.994;7.570;2023-07-20T06:17:53;6.55;;;4.55;;
13269;SDS011;6703;51.994;7.570;2023-07-20T06:20:21;7.57;;;5.05;;
13269;SDS011;6703;51.994;7.570;2023-07-20T06:22:50;6.97;;;4.05;;
13269;SDS011;6703;51.994;7.570;2023-07-20T06:25:18;6.35;;;3.88;;
13269;SDS011;6703;51.994;7.570;2023-07-20T06:27:48;6.13;;;3.00;;
13269;SDS011;6703;51.994;7.570;2023-07-20T06:30:16;7.90;;;3.72;;
13269;SDS011;6703;51.994;7.570;2023-07-20T06:32:44;8.73;;;3.70;;
13269;SDS011;6703;51.994;7.570;2023-07-20T06:35:13;5.53;;;3.72;;
13269;SDS011;6703;51.994;7.570;2023-07-20T06:37:40;12.20;;;3.77;;
13269;SDS011;6703;51.994;7.570;2023-07-20T06:40:11;5.13;;;3.10;;
13269;SDS011;6703;51.994;7.570;2023-07-20T06:42:42;5.87;;;3.60;;
13269;SDS011;6703;51.994;7.570;2023-07-20T06:45:12;6.95;;;3.15;;
13269;SDS011;6703;51.994;7.570;2023-07-20T06:47:40;3.65;;;2.78;;
13269;SDS011;6703;51.994;7.570;2023-07-20T06:50:09;4.20;;;2.50;;
13269;SDS011;6703;51.994;7.570;2023-07-20T06:52:58;4.32;;;3.00;;
13269;SDS011;6703;51.994;7.570;2023-07-20T06:55:27;4.55;;;1.90;;
13269;SDS011;6703;51.994;7.570;2023-07-20T06:57:55;2.03;;;1.40;;
13269;SDS011;6703;51.994;7.570;2023-07-20T07:00:25;3.75;;;1.83;;
13269;SDS011;6703;51.994;7.570;2023-07-20T07:05:37;7.68;;;3.70;;
13269;SDS011;6703;51.994;7.570;2023-07-20T07:08:06;5.65;;;2.70;;
13269;SDS011;6703;51.994;7.570;2023-07-20T07:10:36;5.57;;;1.80;;
13269;SDS011;6703;51.994;7.570;2023-07-20T07:13:04;2.40;;;1.50;;
13269;SDS011;6703;51.994;7.570;2023-07-20T07:15:31;6.15;;;1.60;;
13269;SDS011;6703;51.994;7.570;2023-07-20T07:17:59;3.00;;;1.40;;
13269;SDS011;6703;51.994;7.570;2023-07-20T07:20:30;2.17;;;1.30;;
13269;SDS011;6703;51.994;7.570;2023-07-20T07:22:58;2.80;;;1.60;;
13269;SDS011;6703;51.994;7.570;2023-07-20T07:25:27;4.22;;;1.25;;
13269;SDS011;6703;51.994;7.570;2023-07-20T07:27:56;3.30;;;1.30;;
13269;SDS011;6703;51.994;7.570;2023-07-20T07:30:24;3.90;;;1.73;;
13269;SDS011;6703;51.994;7.570;2023-07-20T07:32:52;1.88;;;1.17;;
13269;SDS011;6703;51.994;7.570;2023-07-20T07:35:20;3.40;;;1.00;;
13269;SDS011;6703;51.994;7.570;2023-07-20T07:37:47;2.10;;;1.00;;
13269;SDS011;6703;51.994;7.570;2023-07-20T07:40:18;2.40;;;1.20;;
13269;SDS011;6703;51.994;7.570;2023-07-20T07:42:46;3.63;;;1.20;;
13269;SDS011;6703;51.994;7.570;2023-07-20T07:45:15;4.55;;;1.40;;
13269;SDS011;6703;51.994;7.570;2023-07-20T07:47:43;3.22;;;1.00;;
13269;SDS011;6703;51.994;7.570;2023-07-20T07:50:11;3.20;;;1.02;;
13269;SDS011;6703;51.994;7.570;2023-07-20T07:52:39;3.13;;;1.00;;
13269;SDS011;6703;51.994;7.570;2023-07-20T07:55:07;2.03;;;1.00;;
13269;SDS011;6703;51.994;7.570;2023-07-20T07:57:35;1.92;;;0.85;;
13269;SDS011;6703;51.994;7.570;2023-07-20T08:00:03;2.20;;;1.10;;
13269;SDS011;6703;51.994;7.570;2023-07-20T08:02:38;2.80;;;1.40;;
13269;SDS011;6703;51.994;7.570;2023-07-20T08:05:06;3.85;;;0.77;;
13269;SDS011;6703;51.994;7.570;2023-07-20T08:07:34;0.98;;;0.80;;
13269;SDS011;6703;51.994;7.570;2023-07-20T08:10:02;2.47;;;0.60;;
13269;SDS011;6703;51.994;7.570;2023-07-20T08:12:31;1.35;;;0.50;;
13269;SDS011;6703;51.994;7.570;2023-07-20T08:14:58;1.42;;;0.70;;
13269;SDS011;6703;51.994;7.570;2023-07-20T08:17:26;3.10;;;0.50;;
13269;SDS011;6703;51.994;7.570;2023-07-20T08:19:56;1.38;;;0.65;;
13269;SDS011;6703;51.994;7.570;2023-07-20T08:22:24;1.60;;;1.00;;
13269;SDS011;6703;51.994;7.570;2023-07-20T08:24:52;2.55;;;1.23;;
13269;SDS011;6703;51.994;7.570;2023-07-20T08:27:20;0.60;;;0.43;;
13269;SDS011;6703;51.994;7.570;2023-07-20T08:29:47;1.17;;;0.40;;
13269;SDS011;6703;51.994;7.570;2023-07-20T08:32:15;0.52;;;0.40;;
13269;SDS011;6703;51.994;7.570;2023-07-20T08:34:43;2.17;;;0.50;;
13269;SDS011;6703;51.994;7.570;2023-07-20T08:37:13;1.42;;;0.30;;
13269;SDS011;6703;51.994;7.570;2023-07-20T08:39:41;1.15;;;0.50;;
13269;SDS011;6703;51.994;7.570;2023-07-20T08:42:09;0.80;;;0.50;;
13269;SDS011;6703;51.994;7.570;2023-07-20T08:44:37;1.55;;;0.70;;
13269;SDS011;6703;51.994;7.570;2023-07-20T08:47:06;3.13;;;0.60;;
13269;SDS011;6703;51.994;7.570;2023-07-20T08:49:35;0.70;;;0.70;;
13269;SDS011;6703;51.994;7.570;2023-07-20T08:52:03;1.47;;;0.60;;
13269;SDS011;6703;51.994;7.570;2023-07-20T08:54:33;1.08;;;0.52;;
13269;SDS011;6703;51.994;7.570;2023-07-20T08:57:03;1.75;;;0.40;;
13269;SDS011;6703;51.994;7.570;2023-07-20T08:59:32;1.50;;;0.45;;
13269;SDS011;6703;51.994;7.570;2023-07-20T09:02:00;1.25;;;0.50;;
13269;SDS011;6703;51.994;7.570;2023-07-20T09:04:28;2.47;;;0.45;;
13269;SDS011;6703;51.994;7.570;2023-07-20T09:06:56;1.50;;;0.40;;
13269;SDS011;6703;51.994;7.570;2023-07-20T09:09:24;1.00;;;0.50;;
13269;SDS011;6703;51.994;7.570;2023-07-20T09:11:53;1.20;;;0.50;;
13269;SDS011;6703;51.994;7.570;2023-07-20T09:14:22;1.33;;;0.50;;
13269;SDS011;6703;51.994;7.570;2023-07-20T09:16:52;1.48;;;0.50;;
13269;SDS011;6703;51.994;7.570;2023-07-20T09:19:21;2.58;;;0.50;;
13269;SDS011;6703;51.994;7.570;2023-07-20T09:21:50;2.67;;;0.60;;
13269;SDS011;6703;51.994;7.570;2023-07-20T09:24:19;1.93;;;0.60;;
13269;SDS011;6703;51.994;7.570;2023-07-20T09:26:48;1.50;;;0.70;;
13269;SDS011;6703;51.994;7.570;2023-07-20T09:29:19;0.80;;;0.52;;
13269;SDS011;6703;51.994;7.570;2023-07-20T09:31:58;2.78;;;0.60;;
13269;SDS011;6703;51.994;7.570;2023-07-20T09:34:28;1.38;;;0.40;;
13269;SDS011;6703;51.994;7.570;2023-07-20T09:36:59;1.00;;;0.30;;
13269;SDS011;6703;51.994;7.570;2023-07-20T09:39:28;0.40;;;0.30;;
13269;SDS011;6703;51.994;7.570;2023-07-20T09:41:59;0.90;;;0.40;;
13269;SDS011;6703;51.994;7.570;2023-07-20T09:44:32;0.80;;;0.55;;
13269;SDS011;6703;51.994;7.570;2023-07-20T09:47:03;0.38;;;0.22;;
13269;SDS011;6703;51.994;7.570;2023-07-20T09:49:32;0.77;;;0.40;;
13269;SDS011;6703;51.994;7.570;2023-07-20T09:52:03;1.45;;;0.50;;
13269;SDS011;6703;51.994;7.570;2023-07-20T09:54:31;1.15;;;0.35;;
13269;SDS011;6703;51.994;7.570;2023-07-20T09:56:59;1.10;;;0.40;;
13269;SDS011;6703;51.994;7.570;2023-07-20T09:59:29;2.63;;;0.75;;
13269;SDS011;6703;51.994;7.570;2023-07-20T10:01:58;0.75;;;0.40;;
13269;SDS011;6703;51.994;7.570;2023-07-20T10:04:40;7.32;;;0.98;;
13269;SDS011;6703;51.994;7.570;2023-07-20T10:07:10;1.17;;;0.50;;
13269;SDS011;6703;51.994;7.570;2023-07-20T10:09:39;0.55;;;0.30;;
13269;SDS011;6703;51.994;7.570;2023-07-20T10:12:08;1.00;;;0.30;;
13269;SDS011;6703;51.994;7.570;2023-07-20T10:14:57;0.45;;;0.30;;
13269;SDS011;6703;51.994;7.570;2023-07-20T10:17:30;0.90;;;0.40;;
13269;SDS011;6703;51.994;7.570;2023-07-20T10:19:58;0.22;;;0.22;;
13269;SDS011;6703;51.994;7.570;2023-07-20T10:22:30;2.13;;;0.43;;
13269;SDS011;6703;51.994;7.570;2023-07-20T10:25:07;1.45;;;0.30;;
13269;SDS011;6703;51.994;7.570;2023-07-20T10:27:35;3.65;;;0.40;;
13269;SDS011;6703;51.994;7.570;2023-07-20T10:30:03;3.03;;;0.77;;
13269;SDS011;6703;51.994;7.570;2023-07-20T10:32:34;3.03;;;1.00;;
13269;SDS011;6703;51.994;7.570;2023-07-20T10:35:11;1.00;;;0.30;;
13269;SDS011;6703;51.994;7.570;2023-07-20T10:37:46;2.00;;;0.30;;
13269;SDS011;6703;51.994;7.570;2023-07-20T10:40:26;3.17;;;1.23;;
13269;SDS011;6703;51.994;7.570;2023-07-20T10:42:56;1.13;;;0.30;;
13269;SDS011;6703;51.994;7.570;2023-07-20T10:45:34;1.83;;;0.45;;
13269;SDS011;6703;51.994;7.570;2023-07-20T10:48:05;0.73;;;0.20;;
13269;SDS011;6703;51.994;7.570;2023-07-20T10:50:35;0.53;;;0.30;;
13269;SDS011;6703;51.994;7.570;2023-07-20T10:53:11;0.50;;;0.40;;
13269;SDS011;6703;51.994;7.570;2023-07-20T10:55:39;0.40;;;0.20;;
13269;SDS011;6703;51.994;7.570;2023-07-20T10:58:08;0.30;;;0.10;;
13269;SDS011;6703;51.994;7.570;2023-07-20T11:00:37;1.95;;;0.30;;
13269;SDS011;6703;51.994;7.570;2023-07-20T11:03:07;1.90;;;0.22;;
13269;SDS011;6703;51.994;7.570;2023-07-20T11:05:36;0.57;;;0.38;;
13269;SDS011;6703;51.994;7.570;2023-07-20T11:08:06;2.45;;;1.15;;
13269;SDS011;6703;51.994;7.570;2023-07-20T11:10:37;2.90;;;1.60;;
13269;SDS011;6703;51.994;7.570;2023-07-20T11:13:22;3.88;;;1.67;;
13269;SDS011;6703;51.994;7.570;2023-07-20T11:16:03;2.60;;;0.82;;
13269;SDS011;6703;51.994;7.570;2023-07-20T11:18:34;7.43;;;3.30;;
13269;SDS011;6703;51.994;7.570;2023-07-20T11:21:07;0.45;;;0.45;;
13269;SDS011;6703;51.994;7.570;2023-07-20T11:23:37;3.53;;;1.80;;
13269;SDS011;6703;51.994;7.570;2023-07-20T11:26:06;0.68;;;0.40;;
13269;SDS011;6703;51.994;7.570;2023-07-20T11:32:00;1.00;;;0.30;;
13269;SDS011;6703;51.994;7.570;2023-07-20T11:34:33;1.73;;;0.47;;
13269;SDS011;6703;51.994;7.570;2023-07-20T11:37:02;1.63;;;0.80;;
13269;SDS011;6703;51.994;7.570;2023-07-20T11:39:33;2.00;;;0.33;;
13269;SDS011;6703;51.994;7.570;2023-07-20T11:42:02;4.80;;;0.40;;
13269;SDS011;6703;51.994;7.570;2023-07-20T11:44:30;1.08;;;0.40;;
13269;SDS011;6703;51.994;7.570;2023-07-20T11:47:02;1.50;;;0.40;;
13269;SDS011;6703;51.994;7.570;2023-07-20T11:49:30;1.13;;;0.30;;
13269;SDS011;6703;51.994;7.570;2023-07-20T11:52:04;0.68;;;0.35;;
13269;SDS011;6703;51.994;7.570;2023-07-20T11:54:33;0.60;;;0.25;;
13269;SDS011;6703;51.994;7.570;2023-07-20T11:57:02;0.80;;;0.30;;
13269;SDS011;6703;51.994;7.570;2023-07-20T11:59:31;1.40;;;0.20;;
13269;SDS011;6703;51.994;7.570;2023-07-20T12:02:00;0.40;;;0.28;;
13269;SDS011;6703;51.994;7.570;2023-07-20T12:04:28;0.95;;;0.40;;
13269;SDS011;6703;51.994;7.570;2023-07-20T12:06:58;1.55;;;0.30;;
13269;SDS011;6703;51.994;7.570;2023-07-20T12:09:41;0.70;;;0.22;;
13269;SDS011;6703;51.994;7.570;2023-07-20T12:12:18;18.67;;;8.70;;
13269;SDS011;6703;51.994;7.570;2023-07-20T12:14:46;7.90;;;2.90;;
13269;SDS011;6703;51.994;7.570;2023-07-20T12:17:14;4.28;;;0.47;;
13269;SDS011;6703;51.994;7.570;2023-07-20T12:19:42;2.97;;;1.20;;
13269;SDS011;6703;51.994;7.570;2023-07-20T12:22:11;2.20;;;0.80;;
13269;SDS011;6703;51.994;7.570;2023-07-20T12:24:39;0.20;;;0.20;;
13269;SDS011;6703;51.994;7.570;2023-07-20T12:27:07;0.30;;;0.20;;
13269;SDS011;6703;51.994;7.570;2023-07-20T12:29:34;0.45;;;0.30;;
13269;SDS011;6703;51.994;7.570;2023-07-20T12:32:04;0.55;;;0.28;;
13269;SDS011;6703;51.994;7.570;2023-07-20T12:34:32;0.90;;;0.40;;
13269;SDS011;6703;51.994;7.570;2023-07-20T12:37:02;0.80;;;0.40;;
13269;SDS011;6703;51.994;7.570;2023-07-20T12:39:32;2.78;;;1.27;;
13269;SDS011;6703;51.994;7.570;2023-07-20T12:42:00;1.47;;;0.53;;
13269;SDS011;6703;51.994;7.570;2023-07-20T12:44:28;1.45;;;0.70;;
13269;SDS011;6703;51.994;7.570;2023-07-20T12:46:55;3.05;;;1.67;;
13269;SDS011;6703;51.994;7.570;2023-07-20T12:49:24;6.13;;;3.25;;
13269;SDS011;6703;51.994;7.570;2023-07-20T12:51:51;1.83;;;1.17;;
13269;SDS011;6703;51.994;7.570;2023-07-20T12:54:19;1.50;;;0.40;;
13269;SDS011;6703;51.994;7.570;2023-07-20T12:56:48;18.83;;;4.05;;
13269;SDS011;6703;51.994;7.570;2023-07-20T12:59:19;2.72;;;0.43;;
13269;SDS011;6703;51.994;7.570;2023-07-20T13:01:46;0.83;;;0.47;;
13269;SDS011;6703;51.994;7.570;2023-07-20T13:04:14;3.00;;;1.50;;
13269;SDS011;6703;51.994;7.570;2023-07-20T13:06:42;2.03;;;0.40;;
13269;SDS011;6703;51.994;7.570;2023-07-20T13:09:10;5.83;;;3.23;;
13269;SDS011;6703;51.994;7.570;2023-07-20T13:11:37;2.00;;;0.73;;
13269;SDS011;6703;51.994;7.570;2023-07-20T13:14:07;1.83;;;0.90;;
13269;SDS011;6703;51.994;7.570;2023-07-20T13:19:20;1.50;;;0.30;;
13269;SDS011;6703;51.994;7.570;2023-07-20T13:21:47;2.15;;;0.50;;
13269;SDS011;6703;51.994;7.570;2023-07-20T13:24:15;0.40;;;0.20;;
13269;SDS011;6703;51.994;7.570;2023-07-20T13:26:43;0.43;;;0.30;;
13269;SDS011;6703;51.994;7.570;2023-07-20T13:29:13;1.73;;;0.30;;
13269;SDS011;6703;51.994;7.570;2023-07-20T13:31:41;0.75;;;0.25;;
13269;SDS011;6703;51.994;7.570;2023-07-20T13:34:09;0.38;;;0.20;;
13269;SDS011;6703;51.994;7.570;2023-07-20T13:36:37;0.38;;;0.17;;
13269;SDS011;6703;51.994;7.570;2023-07-20T13:39:05;12.82;;;1.05;;
13269;SDS011;6703;51.994;7.570;2023-07-20T13:41:34;1.98;;;0.60;;
13269;SDS011;6703;51.994;7.570;2023-07-20T13:44:02;4.03;;;0.30;;
13269;SDS011;6703;51.994;7.570;2023-07-20T13:46:33;0.30;;;0.27;;
13269;SDS011;6703;51.994;7.570;2023-07-20T13:49:04;1.27;;;0.38;;
13269;SDS011;6703;51.994;7.570;2023-07-20T13:51:38;2.15;;;0.60;;
13269;SDS011;6703;51.994;7.570;2023-07-20T13:54:06;0.90;;;0.30;;
13269;SDS011;6703;51.994;7.570;2023-07-20T13:56:37;0.77;;;0.50;;
13269;SDS011;6703;51.994;7.570;2023-07-20T13:59:08;1.05;;;0.40;;
13269;SDS011;6703;51.994;7.570;2023-07-20T14:01:37;1.17;;;0.40;;
13269;SDS011;6703;51.994;7.570;2023-07-20T14:17:53;2.22;;;0.70;;
13269;SDS011;6703;51.994;7.570;2023-07-20T14:20:21;15.70;;;7.87;;
13269;SDS011;6703;51.994;7.570;2023-07-20T14:22:48;1.70;;;1.00;;
13269;SDS011;6703;51.994;7.570;2023-07-20T14:25:17;1.30;;;0.20;;
13269;SDS011;6703;51.994;7.570;2023-07-20T14:27:54;1.90;;;0.63;;
13269;SDS011;6703;51.994;7.570;2023-07-20T14:30:22;1.00;;;0.20;;
13269;SDS011;6703;51.994;7.570;2023-07-20T14:32:50;0.75;;;0.30;;
13269;SDS011;6703;51.994;7.570;2023-07-20T14:35:19;0.40;;;0.28;;
13269;SDS011;6703;51.994;7.570;2023-07-20T14:37:49;4.53;;;0.47;;
13269;SDS011;6703;51.994;7.570;2023-07-20T14:40:17;1.33;;;0.30;;
13269;SDS011;6703;51.994;7.570;2023-07-20T14:42:45;1.60;;;0.30;;
13269;SDS011;6703;51.994;7.570;2023-07-20T14:45:13;0.60;;;0.38;;
13269;SDS011;6703;51.994;7.570;2023-07-20T14:47:41;0.47;;;0.30;;
13269;SDS011;6703;51.994;7.570;2023-07-20T14:50:09;1.60;;;0.20;;
13269;SDS011;6703;51.994;7.570;2023-07-20T14:55:24;0.70;;;0.30;;
13269;SDS011;6703;51.994;7.570;2023-07-20T14:57:52;1.70;;;0.28;;
13269;SDS011;6703;51.994;7.570;2023-07-20T15:00:20;0.70;;;0.30;;
13269;SDS011;6703;51.994;7.570;2023-07-20T15:02:48;0.65;;;0.20;;
13269;SDS011;6703;51.994;7.570;2023-07-20T15:05:21;0.47;;;0.22;;
13269;SDS011;6703;51.994;7.570;2023-07-20T15:07:49;0.80;;;0.20;;
13269;SDS011;6703;51.994;7.570;2023-07-20T15:10:17;1.45;;;0.30;;
13269;SDS011;6703;51.994;7.570;2023-07-20T15:12:46;1.65;;;0.30;;
13269;SDS011;6703;51.994;7.570;2023-07-20T15:15:14;1.08;;;0.20;;
13269;SDS011;6703;51.994;7.570;2023-07-20T15:17:43;1.35;;;0.30;;
13269;SDS011;6703;51.994;7.570;2023-07-20T15:20:12;0.80;;;0.30;;
13269;SDS011;6703;51.994;7.570;2023-07-20T15:22:40;4.82;;;0.50;;
13269;SDS011;6703;51.994;7.570;2023-07-20T15:25:09;1.48;;;0.70;;
13269;SDS011;6703;51.994;7.570;2023-07-20T15:27:38;1.00;;;0.40;;
13269;SDS011;6703;51.994;7.570;2023-07-20T15:30:16;1.42;;;0.43;;
13269;SDS011;6703;51.994;7.570;2023-07-20T15:32:47;1.73;;;0.45;;
13269;SDS011;6703;51.994;7.570;2023-07-20T15:35:17;0.75;;;0.20;;
13269;SDS011;6703;51.994;7.570;2023-07-20T15:37:51;1.30;;;0.52;;